Time;durP1;ratioP1;P1;durP2;ratioP2;P2;SDS_P1;SDS_P2;PMS_P1;PMS_P2;Temp;Humidity;BMP_temperature;BMP_pressure;BME280_temperature;BME280_humidity;BME280_pressure;Samples;Min_cycle;Max_cycle;Signal;HPM_P1;HPM_P2
2021/06/23 00:01:03;;;;;;;8.23;7.60;;;17.70;99.90;;;;;;4997931;28;20188;-87
2021/06/23 00:03:29;;;;;;;7.33;6.73;;;17.60;99.90;;;;;;4999407;28;20185;-87
2021/06/23 00:05:54;;;;;;;6.60;6.10;;;17.70;99.90;;;;;;5008951;28;20534;-87
2021/06/23 00:08:20;;;;;;;5.73;5.23;;;17.70;99.90;;;;;;4992418;28;20224;-87
2021/06/23 00:10:51;;;;;;;6.03;5.53;;;17.70;99.90;;;;;;4993852;28;20596;-87
2021/06/23 00:13:18;;;;;;;5.00;4.60;;;17.70;99.90;;;;;;4996243;28;20283;-87
2021/06/23 00:15:44;;;;;;;5.60;5.10;;;17.70;99.90;;;;;;4992534;28;20633;-87
2021/06/23 00:18:10;;;;;;;5.17;4.77;;;17.70;99.90;;;;;;4995297;28;21123;-87
2021/06/23 00:20:36;;;;;;;5.87;5.37;;;17.60;99.90;;;;;;4997149;28;20215;-87
2021/06/23 00:23:02;;;;;;;5.30;4.90;;;17.60;99.90;;;;;;4994917;28;20189;-87
2021/06/23 00:25:29;;;;;;;5.30;4.80;;;17.50;99.90;;;;;;5011739;28;20181;-88
2021/06/23 00:27:55;;;;;;;4.93;4.53;;;17.50;99.90;;;;;;5012793;28;20484;-88
2021/06/23 00:30:21;;;;;;;4.13;3.83;;;17.50;99.90;;;;;;5008643;28;20607;-88
2021/06/23 00:32:48;;;;;;;4.37;3.97;;;17.50;99.90;;;;;;4990522;28;20209;-87
2021/06/23 00:35:14;;;;;;;3.80;3.50;;;17.50;99.90;;;;;;4995151;28;20450;-88
2021/06/23 00:37:40;;;;;;;4.93;3.70;;;17.40;99.90;;;;;;5007748;28;20900;-88
2021/06/23 00:40:07;;;;;;;3.60;3.30;;;17.40;99.90;;;;;;4994452;28;20530;-88
2021/06/23 00:42:34;;;;;;;3.80;3.50;;;17.30;99.90;;;;;;4990854;28;20451;-88
2021/06/23 00:45:06;;;;;;;4.80;4.40;;;17.30;99.90;;;;;;4997258;28;20643;-88
2021/06/23 00:47:32;;;;;;;5.97;4.20;;;17.20;99.90;;;;;;4991222;28;20534;-88
2021/06/23 00:49:58;;;;;;;5.57;5.10;;;17.20;99.90;;;;;;4991107;28;21460;-88
2021/06/23 00:52:24;;;;;;;6.53;5.47;;;17.20;99.90;;;;;;4992646;28;20495;-87
2021/06/23 00:54:51;;;;;;;6.10;5.60;;;17.20;99.90;;;;;;4992593;28;20432;-88
2021/06/23 00:57:18;;;;;;;6.80;6.23;;;17.20;99.90;;;;;;4999528;28;20448;-88
2021/06/23 00:59:45;;;;;;;7.57;6.97;;;17.20;99.90;;;;;;4994410;28;20569;-88
2021/06/23 01:02:12;;;;;;;7.77;7.10;;;17.20;99.90;;;;;;5010594;28;20444;-88
2021/06/23 01:04:39;;;;;;;9.37;6.90;;;17.20;99.90;;;;;;4993469;28;20446;-88
2021/06/23 01:07:05;;;;;;;7.30;6.80;;;17.20;99.90;;;;;;4996779;28;20474;-88
2021/06/23 01:09:31;;;;;;;7.20;6.50;;;17.20;99.90;;;;;;4993621;28;20475;-88
2021/06/23 01:12:37;;;;;;;6.00;5.60;;;17.20;99.90;;;;;;5008500;28;20432;-88
2021/06/23 01:15:03;;;;;;;6.90;6.30;;;17.30;99.90;;;;;;4995044;28;20299;-88
2021/06/23 01:17:34;;;;;;;5.20;4.80;;;17.30;99.90;;;;;;5009257;28;20444;-88
2021/06/23 01:20:08;;;;;;;5.07;4.67;;;17.40;99.90;;;;;;4991522;28;20820;-87
2021/06/23 01:22:37;;;;;;;5.10;4.70;;;17.40;99.90;;;;;;5009476;28;20590;-88
2021/06/23 01:25:04;;;;;;;6.03;5.10;;;17.40;99.90;;;;;;5009726;28;20530;-88
2021/06/23 01:27:29;;;;;;;5.70;5.17;;;17.40;99.90;;;;;;4994113;28;20435;-88
2021/06/23 01:29:55;;;;;;;6.13;5.40;;;17.30;99.90;;;;;;4991786;28;20459;-88
2021/06/23 01:32:20;;;;;;;8.00;6.70;;;17.30;99.90;;;;;;5009373;28;20185;-88
2021/06/23 01:34:46;;;;;;;6.40;5.47;;;17.20;99.90;;;;;;4995871;28;20247;-88
2021/06/23 01:37:12;;;;;;;8.03;6.30;;;17.20;99.90;;;;;;5009643;28;20200;-88
2021/06/23 01:39:37;;;;;;;7.50;6.80;;;17.10;99.90;;;;;;4987630;28;20185;-87
2021/06/23 01:42:03;;;;;;;7.23;6.50;;;17.10;99.90;;;;;;4993983;28;20687;-88
2021/06/23 01:44:29;;;;;;;8.53;6.33;;;17.10;99.90;;;;;;4990823;28;20182;-87
2021/06/23 01:46:56;;;;;;;5.90;5.30;;;17.10;99.90;;;;;;4997015;28;20807;-88
2021/06/23 01:49:24;;;;;;;6.47;5.77;;;17.20;99.90;;;;;;4990410;28;20480;-88
2021/06/23 01:51:49;;;;;;;5.80;5.23;;;17.10;99.90;;;;;;4991070;28;20444;-87
2021/06/23 01:54:15;;;;;;;5.47;5.07;;;17.10;99.90;;;;;;5009344;28;20481;-87
2021/06/23 01:56:41;;;;;;;7.20;5.73;;;17.00;99.90;;;;;;4991165;28;21034;-87
2021/06/23 01:59:07;;;;;;;5.73;5.33;;;17.00;99.90;;;;;;4992149;28;20544;-88
2021/06/23 02:01:48;;;;;;;5.93;5.33;;;17.00;99.90;;;;;;4992361;28;20190;-87
2021/06/23 02:04:43;;;;;;;5.47;5.07;;;17.00;99.90;;;;;;5009471;28;20448;-87
2021/06/23 02:07:27;;;;;;;5.37;4.90;;;17.00;99.90;;;;;;4979643;28;20451;-88
2021/06/23 02:10:25;;;;;;;5.00;4.50;;;17.00;99.90;;;;;;4989030;28;21091;-87
2021/06/23 02:13:09;;;;;;;4.93;4.40;;;16.90;99.90;;;;;;4921558;28;20541;-87
2021/06/23 02:15:36;;;;;;;4.40;4.10;;;16.90;99.90;;;;;;4988597;28;20587;-87
2021/06/23 02:18:06;;;;;;;4.40;4.00;;;16.90;99.90;;;;;;4987668;28;20447;-87
2021/06/23 02:20:34;;;;;;;4.73;4.33;;;16.80;99.90;;;;;;4991535;28;20523;-87
2021/06/23 02:23:09;;;;;;;4.30;3.97;;;16.70;99.90;;;;;;5004723;28;20456;-87
2021/06/23 02:25:35;;;;;;;3.93;3.63;;;16.70;99.90;;;;;;4987907;28;20443;-87
2021/06/23 02:28:01;;;;;;;6.40;4.60;;;16.70;99.90;;;;;;4989238;28;20561;-87
2021/06/23 02:30:27;;;;;;;4.90;4.50;;;16.70;99.90;;;;;;4989583;28;20447;-88
2021/06/23 02:32:55;;;;;;;6.33;5.10;;;16.70;99.90;;;;;;4990402;28;20450;-88
2021/06/23 02:35:24;;;;;;;5.87;5.37;;;16.80;99.90;;;;;;4991203;28;20439;-88
2021/06/23 02:37:51;;;;;;;5.40;5.00;;;16.80;99.90;;;;;;4991409;28;20453;-87
2021/06/23 02:40:17;;;;;;;5.63;5.13;;;16.90;99.90;;;;;;5005034;28;20432;-87
2021/06/23 02:42:43;;;;;;;5.90;5.43;;;16.90;99.90;;;;;;4992919;28;20443;-87
2021/06/23 02:45:10;;;;;;;6.00;5.50;;;16.80;99.90;;;;;;4992138;28;20444;-87
2021/06/23 02:47:35;;;;;;;6.33;5.83;;;16.80;99.90;;;;;;4991467;28;20448;-87
2021/06/23 02:50:02;;;;;;;5.50;5.00;;;16.80;99.90;;;;;;5006937;28;20489;-87
2021/06/23 02:52:29;;;;;;;7.10;5.80;;;16.70;99.90;;;;;;4992291;28;20189;-88
2021/06/23 02:54:55;;;;;;;4.83;4.43;;;16.70;99.90;;;;;;4986892;28;20478;-87
2021/06/23 02:57:21;;;;;;;5.60;5.10;;;16.60;99.90;;;;;;4990994;28;20436;-88
2021/06/23 02:59:47;;;;;;;6.07;4.93;;;16.60;99.90;;;;;;4991637;28;20466;-88
2021/06/23 03:02:13;;;;;;;5.27;4.77;;;16.50;99.90;;;;;;5006802;28;20443;-87
2021/06/23 03:04:47;;;;;;;5.37;4.97;;;16.50;99.90;;;;;;4992507;28;20457;-87
2021/06/23 03:07:13;;;;;;;6.47;5.23;;;16.50;99.90;;;;;;4986798;28;21219;-87
2021/06/23 03:09:42;;;;;;;5.73;5.30;;;16.50;99.90;;;;;;4990943;28;20475;-87
2021/06/23 03:12:09;;;;;;;7.03;5.30;;;16.40;99.90;;;;;;4996753;28;20444;-87
2021/06/23 03:14:34;;;;;;;6.37;5.10;;;16.30;99.90;;;;;;4990773;28;20462;-87
2021/06/23 03:17:00;;;;;;;6.80;5.77;;;16.30;99.90;;;;;;4991055;28;20448;-87
2021/06/23 03:19:26;;;;;;;5.27;4.87;;;16.30;99.90;;;;;;5011415;28;20222;-87
2021/06/23 03:21:52;;;;;;;6.13;5.73;;;16.30;99.90;;;;;;4996074;28;20291;-87
2021/06/23 03:24:18;;;;;;;6.43;5.93;;;16.30;99.90;;;;;;4991570;28;21022;-88
2021/06/23 03:26:43;;;;;;;8.17;6.00;;;16.30;99.90;;;;;;4991560;28;20193;-87
2021/06/23 03:29:26;;;;;;;7.60;6.90;;;16.30;99.90;;;;;;4992476;28;20216;-87
2021/06/23 03:31:51;;;;;;;11.20;8.30;;;16.30;99.90;;;;;;4985212;28;20203;-87
2021/06/23 03:34:17;;;;;;;13.13;7.80;;;16.30;99.90;;;;;;4985676;28;20906;-88
2021/06/23 03:36:42;;;;;;;7.80;7.00;;;16.30;99.90;;;;;;4994358;28;20660;-87
2021/06/23 03:39:08;;;;;;;12.70;7.63;;;16.30;99.90;;;;;;5016211;28;20750;-87
2021/06/23 03:41:34;;;;;;;14.27;8.20;;;16.30;99.90;;;;;;4995577;28;20204;-87
2021/06/23 03:43:59;;;;;;;13.80;7.80;;;16.30;99.90;;;;;;4992654;28;20556;-87
2021/06/23 03:46:25;;;;;;;17.33;8.60;;;16.30;99.90;;;;;;4997958;28;20188;-87
2021/06/23 03:48:51;;;;;;;8.03;7.23;;;16.30;99.90;;;;;;4998149;28;20243;-88
2021/06/23 03:51:16;;;;;;;10.00;8.07;;;16.30;99.90;;;;;;4996863;28;20203;-87
2021/06/23 03:53:42;;;;;;;13.50;7.63;;;16.30;99.90;;;;;;4991210;28;20203;-88
2021/06/23 03:56:08;;;;;;;19.17;8.37;;;16.30;99.90;;;;;;5008378;28;20566;-88
2021/06/23 03:58:37;;;;;;;7.57;5.87;;;16.20;99.90;;;;;;4994931;28;20443;-87
2021/06/23 04:01:02;;;;;;;5.70;5.20;;;16.20;99.90;;;;;;4997747;28;20431;-88
2021/06/23 04:03:28;;;;;;;6.00;5.50;;;16.20;99.90;;;;;;4993873;28;20470;-87
2021/06/23 04:05:54;;;;;;;8.80;6.77;;;16.10;99.90;;;;;;4995779;28;20190;-88
2021/06/23 04:08:22;;;;;;;8.13;7.43;;;16.20;99.90;;;;;;4995117;28;20244;-88
2021/06/23 04:11:04;;;;;;;8.37;7.67;;;16.30;99.90;;;;;;4995292;28;20597;-88
2021/06/23 04:13:30;;;;;;;8.20;6.90;;;16.30;99.90;;;;;;5011447;28;20794;-87
2021/06/23 04:15:59;;;;;;;8.40;6.47;;;16.50;99.90;;;;;;4989761;28;20474;-87
2021/06/23 04:18:24;;;;;;;6.90;6.27;;;16.50;99.90;;;;;;4993152;28;20205;-87
2021/06/23 04:20:50;;;;;;;6.47;5.87;;;16.50;99.90;;;;;;4994413;28;20985;-87
2021/06/23 04:23:16;;;;;;;5.20;4.80;;;16.40;99.90;;;;;;4995173;28;20682;-86
2021/06/23 04:25:41;;;;;;;5.40;4.90;;;16.50;99.90;;;;;;4994257;28;21462;-88
2021/06/23 04:28:10;;;;;;;5.17;4.67;;;16.50;99.90;;;;;;4995708;28;24359;-87
2021/06/23 04:30:35;;;;;;;4.40;4.00;;;16.50;99.90;;;;;;5016287;28;20193;-87
2021/06/23 04:33:01;;;;;;;5.30;4.37;;;16.50;99.90;;;;;;5001054;28;20977;-87
2021/06/23 04:35:27;;;;;;;4.40;4.00;;;16.50;99.90;;;;;;5003203;28;20218;-87
2021/06/23 04:37:52;;;;;;;4.63;4.33;;;16.50;99.90;;;;;;5000598;28;20201;-87
2021/06/23 04:40:18;;;;;;;3.60;3.40;;;16.40;99.90;;;;;;5002836;28;20204;-87
2021/06/23 04:42:44;;;;;;;6.60;3.70;;;16.40;99.90;;;;;;5019405;28;20343;-87
2021/06/23 04:45:12;;;;;;;3.73;3.43;;;16.60;99.90;;;;;;5002235;28;20192;-87
2021/06/23 04:47:39;;;;;;;8.43;4.03;;;16.70;99.90;;;;;;5018586;28;20788;-87
2021/06/23 04:50:09;;;;;;;3.50;3.30;;;16.80;99.90;;;;;;5002425;28;20540;-87
2021/06/23 04:52:35;;;;;;;4.97;3.70;;;16.70;99.90;;;;;;5002508;28;20432;-86
2021/06/23 04:55:01;;;;;;;2.90;2.70;;;16.80;99.90;;;;;;5000853;28;20451;-86
2021/06/23 04:57:27;;;;;;;3.53;2.43;;;16.80;99.90;;;;;;5002830;28;20943;-87
2021/06/23 04:59:53;;;;;;;2.97;2.37;;;17.00;99.90;;;;;;4999308;28;20850;-86
2021/06/23 05:02:21;;;;;;;2.53;2.30;;;17.10;99.90;;;;;;4994606;28;20208;-87
2021/06/23 05:04:47;;;;;;;3.40;2.67;;;17.20;99.90;;;;;;4999106;28;20193;-86
2021/06/23 05:07:13;;;;;;;3.00;2.80;;;17.30;99.90;;;;;;4996688;28;20443;-86
2021/06/23 05:09:40;;;;;;;4.20;3.30;;;17.30;99.90;;;;;;5015839;28;20981;-87
2021/06/23 05:12:08;;;;;;;2.90;2.70;;;17.30;99.90;;;;;;5000208;28;20196;-87
2021/06/23 05:14:34;;;;;;;2.50;2.30;;;17.40;99.90;;;;;;5016651;28;20479;-86
2021/06/23 05:17:00;;;;;;;2.30;1.93;;;17.50;99.90;;;;;;4994201;28;20475;-86
2021/06/23 05:19:26;;;;;;;4.50;1.80;;;17.40;99.90;;;;;;4998503;28;20659;-86
2021/06/23 05:21:52;;;;;;;2.37;1.83;;;17.50;99.90;;;;;;5014029;28;20460;-86
2021/06/23 05:24:18;;;;;;;1.90;1.20;;;17.70;99.90;;;;;;4999466;28;20320;-86
2021/06/23 05:26:49;;;;;;;2.77;2.57;;;17.80;99.90;;;;;;5000912;28;20181;-86
2021/06/23 05:29:14;;;;;;;1.70;1.60;;;17.90;99.90;;;;;;5017312;28;20587;-86
2021/06/23 05:31:40;;;;;;;1.60;1.50;;;17.90;99.90;;;;;;4996739;28;20540;-86
2021/06/23 05:34:13;;;;;;;2.40;1.70;;;17.90;99.90;;;;;;5000225;28;20200;-86
2021/06/23 05:36:39;;;;;;;3.00;2.60;;;18.00;99.90;;;;;;4999260;28;20565;-86
2021/06/23 05:39:05;;;;;;;5.27;2.50;;;17.90;99.90;;;;;;5018428;28;20443;-86
2021/06/23 05:41:31;;;;;;;2.53;2.43;;;17.90;99.90;;;;;;5000630;28;20288;-86
2021/06/23 05:44:02;;;;;;;2.30;2.20;;;18.00;99.90;;;;;;4999271;28;20951;-85
2021/06/23 05:46:28;;;;;;;5.80;2.23;;;18.10;99.90;;;;;;5014478;28;20494;-86
2021/06/23 05:48:56;;;;;;;2.07;1.97;;;18.10;99.90;;;;;;5015621;28;20488;-86
2021/06/23 05:51:21;;;;;;;2.87;2.10;;;18.20;99.90;;;;;;4999030;28;20185;-85
2021/06/23 05:53:47;;;;;;;2.50;2.30;;;18.30;99.90;;;;;;4995743;28;20459;-85
2021/06/23 05:56:14;;;;;;;2.43;2.23;;;18.40;99.90;;;;;;5017568;28;20196;-86
2021/06/23 05:58:40;;;;;;;2.30;2.10;;;18.30;99.90;;;;;;5016121;28;20273;-86
2021/06/23 06:01:06;;;;;;;2.57;2.00;;;18.30;99.90;;;;;;5000361;28;20456;-86
2021/06/23 06:03:33;;;;;;;3.67;2.00;;;18.30;99.90;;;;;;4996837;28;20224;-86
2021/06/23 06:05:59;;;;;;;2.93;1.83;;;18.30;99.90;;;;;;4996836;28;20522;-86
2021/06/23 06:08:25;;;;;;;3.30;1.80;;;18.40;99.90;;;;;;4997279;28;21009;-86
2021/06/23 06:10:50;;;;;;;1.63;1.40;;;18.50;99.90;;;;;;4997112;28;20466;-86
2021/06/23 06:13:16;;;;;;;2.40;1.80;;;18.60;99.90;;;;;;5014461;28;20555;-86
2021/06/23 06:15:42;;;;;;;2.13;1.60;;;18.60;99.90;;;;;;4998572;28;20225;-86
2021/06/23 06:18:09;;;;;;;1.20;1.20;;;18.70;99.90;;;;;;4996975;28;20216;-86
2021/06/23 06:20:35;;;;;;;1.20;0.97;;;18.80;99.90;;;;;;5015988;28;20216;-86
2021/06/23 06:23:03;;;;;;;1.10;1.00;;;18.90;99.90;;;;;;4999239;28;20455;-86
2021/06/23 06:25:29;;;;;;;1.47;1.30;;;19.10;99.90;;;;;;4997148;28;20436;-85
2021/06/23 06:27:55;;;;;;;1.93;1.40;;;19.00;99.90;;;;;;4996145;28;20525;-85
2021/06/23 06:30:23;;;;;;;1.37;1.27;;;19.10;99.90;;;;;;4996096;28;20456;-86
2021/06/23 06:32:51;;;;;;;3.03;0.90;;;19.20;99.90;;;;;;4999211;28;20280;-85
2021/06/23 06:35:17;;;;;;;1.20;1.00;;;19.40;99.90;;;;;;4982177;28;20459;-86
2021/06/23 06:37:46;;;;;;;1.60;1.50;;;19.30;99.90;;;;;;4997210;28;20440;-85
2021/06/23 06:40:14;;;;;;;1.60;1.30;;;19.40;99.90;;;;;;4978842;28;20456;-85
2021/06/23 06:42:40;;;;;;;1.70;1.20;;;19.40;99.90;;;;;;4997272;28;20440;-85
2021/06/23 06:45:06;;;;;;;2.20;1.53;;;19.50;99.90;;;;;;4999655;28;20775;-85
2021/06/23 06:47:34;;;;;;;1.00;1.00;;;19.50;99.90;;;;;;5002046;28;20203;-86
2021/06/23 06:50:02;;;;;;;1.80;0.97;;;19.50;99.90;;;;;;4999572;28;20886;-85
2021/06/23 06:52:28;;;;;;;2.47;1.40;;;19.30;99.90;;;;;;4999574;28;20824;-85
2021/06/23 06:54:54;;;;;;;2.20;1.33;;;19.30;99.90;;;;;;5000254;28;20443;-85
2021/06/23 06:57:20;;;;;;;1.37;1.27;;;19.30;99.90;;;;;;4985016;28;20200;-86
2021/06/23 06:59:58;;;;;;;;;;;;;;;;;;;;;
2021/06/23 07:02:30;;;;;;;1.40;1.30;;;19.50;99.90;;;;;;5000605;28;20188;-86
2021/06/23 07:04:59;;;;;;;2.43;1.60;;;19.60;99.90;;;;;;4981654;28;20514;-87
2021/06/23 07:07:25;;;;;;;1.57;1.40;;;19.70;99.90;;;;;;4997204;28;20543;-90
2021/06/23 07:09:53;;;;;;;1.50;1.20;;;19.70;99.90;;;;;;4999185;28;21134;-90
2021/06/23 07:12:20;;;;;;;1.10;1.00;;;19.80;99.90;;;;;;5003868;28;20394;-91
2021/06/23 07:14:46;;;;;;;1.30;1.20;;;20.00;99.90;;;;;;4997559;28;20452;-90
2021/06/23 07:17:12;;;;;;;0.97;0.93;;;20.10;99.90;;;;;;5013570;28;20443;-90
2021/06/23 07:19:38;;;;;;;1.90;1.13;;;20.30;99.90;;;;;;4997526;28;20287;-89
2021/06/23 07:22:06;;;;;;;1.10;0.90;;;20.50;99.90;;;;;;4999536;28;20255;-90
2021/06/23 07:24:32;;;;;;;1.60;1.50;;;20.60;99.90;;;;;;5000698;28;20451;-90
2021/06/23 07:26:58;;;;;;;2.23;2.03;;;20.50;99.90;;;;;;5000451;28;20463;-90
2021/06/23 07:29:27;;;;;;;2.10;1.50;;;20.70;99.90;;;;;;5000241;28;20583;-90
2021/06/23 07:32:05;;;;;;;1.63;1.53;;;20.90;99.90;;;;;;4999472;28;20463;-91
2021/06/23 07:37:12;;;;;;;3.60;2.53;;;21.10;99.90;;;;;;4999352;28;20498;-90
2021/06/23 07:39:43;;;;;;;2.60;2.27;;;21.00;99.90;;;;;;4995942;28;20442;-91
2021/06/23 07:42:16;;;;;;;2.30;2.20;;;21.00;99.90;;;;;;4987882;28;20455;-90
2021/06/23 07:47:36;;;;;;;2.70;2.50;;;21.10;99.90;;;;;;4991655;28;21019;-90
2021/06/23 07:50:03;;;;;;;2.43;2.23;;;20.90;99.90;;;;;;5011711;28;20456;-90
2021/06/23 07:52:38;;;;;;;3.37;2.70;;;20.60;99.90;;;;;;4997186;28;20455;-90
2021/06/23 07:55:11;;;;;;;2.00;1.90;;;20.70;99.90;;;;;;4995792;28;20934;-90
2021/06/23 08:11:15;;;;;;;2.77;2.57;;;21.80;99.90;;;;;;4997418;28;20440;-89
2021/06/23 08:13:40;;;;;;;3.23;2.60;;;22.00;99.90;;;;;;4996857;28;20185;-88
2021/06/23 08:16:06;;;;;;;3.40;3.20;;;22.10;99.90;;;;;;4996693;28;20558;-89
2021/06/23 08:18:40;;;;;;;3.37;2.50;;;22.20;99.90;;;;;;4997915;28;20223;-89
2021/06/23 08:21:08;;;;;;;2.30;2.20;;;22.30;99.90;;;;;;4997245;28;20204;-89
2021/06/23 08:23:42;;;;;;;2.43;2.23;;;22.50;99.90;;;;;;5016635;28;20753;-87
2021/06/23 08:26:29;;;;;;;2.73;2.53;;;22.50;99.90;;;;;;5001855;28;20596;-87
2021/06/23 08:29:01;;;;;;;2.87;2.60;;;22.20;99.90;;;;;;5003869;28;20515;-88
2021/06/23 08:31:30;;;;;;;3.13;2.90;;;22.30;99.90;;;;;;4991139;28;20475;-88
2021/06/23 08:34:07;;;;;;;2.03;1.93;;;22.50;99.90;;;;;;4991131;28;21187;-89
2021/06/23 08:36:34;;;;;;;2.20;2.10;;;22.60;99.90;;;;;;4994161;28;20818;-87
2021/06/23 08:39:00;;;;;;;2.10;1.60;;;22.80;99.90;;;;;;5004086;28;20447;-88
2021/06/23 08:41:33;;;;;;;2.67;2.50;;;22.90;99.90;;;;;;5017289;28;20462;-88
2021/06/23 08:43:59;;;;;;;4.00;2.43;;;23.00;99.90;;;;;;5001853;28;21552;-89
2021/06/23 08:46:26;;;;;;;2.77;1.90;;;23.00;99.90;;;;;;4983839;28;20502;-89
2021/06/23 08:48:59;;;;;;;2.13;2.03;;;23.30;99.90;;;;;;5002504;28;20483;-88
2021/06/23 08:51:26;;;;;;;2.53;2.33;;;23.50;99.90;;;;;;4999809;28;20513;-90
2021/06/23 08:53:53;;;;;;;2.00;1.80;;;23.40;99.90;;;;;;4981993;28;20499;-87
2021/06/23 08:56:19;;;;;;;2.40;2.20;;;23.40;99.90;;;;;;4997848;28;20475;-86
2021/06/23 08:58:48;;;;;;;1.90;1.80;;;23.30;99.90;;;;;;4995731;28;20954;-85
2021/06/23 09:01:14;;;;;;;1.60;1.50;;;23.50;99.90;;;;;;5000310;28;20490;-85
2021/06/23 09:04:03;;;;;;;1.63;1.50;;;23.40;99.90;;;;;;5015557;28;20812;-85
2021/06/23 09:06:49;;;;;;;2.00;1.53;;;23.50;99.90;;;;;;4998106;28;20439;-84
2021/06/23 09:09:18;;;;;;;1.70;1.60;;;23.80;99.90;;;;;;5001330;28;20482;-84
2021/06/23 09:11:49;;;;;;;1.50;1.40;;;24.00;99.90;;;;;;5002293;28;20460;-85
2021/06/23 09:14:18;;;;;;;1.40;1.30;;;24.00;99.90;;;;;;5014791;28;20623;-85
2021/06/23 09:17:03;;;;;;;1.30;1.30;;;24.00;99.90;;;;;;4987411;28;20452;-85
2021/06/23 09:19:30;;;;;;;1.77;1.17;;;24.30;99.90;;;;;;5012240;28;20894;-86
2021/06/23 09:21:56;;;;;;;1.43;1.20;;;24.30;99.90;;;;;;5012996;28;21133;-86
2021/06/23 09:24:36;;;;;;;1.50;1.40;;;24.30;99.90;;;;;;4995985;28;20807;-86
2021/06/23 09:27:18;;;;;;;1.47;1.10;;;24.20;99.90;;;;;;4990219;28;20185;-85
2021/06/23 09:29:44;;;;;;;1.10;1.00;;;24.20;99.90;;;;;;5007245;28;20567;-85
2021/06/23 09:32:10;;;;;;;1.00;0.97;;;24.10;99.80;;;;;;4996710;28;20471;-86
2021/06/23 09:34:47;;;;;;;1.13;1.13;;;23.90;99.70;;;;;;4996231;28;20490;-85
2021/06/23 09:37:31;;;;;;;1.00;0.83;;;23.90;99.10;;;;;;5013688;28;20209;-85
2021/06/23 09:40:15;;;;;;;1.60;0.60;;;24.20;98.90;;;;;;4997583;28;20877;-85
2021/06/23 09:42:46;;;;;;;0.77;0.77;;;24.10;98.40;;;;;;4995159;28;20695;-85
2021/06/23 09:45:14;;;;;;;0.40;0.40;;;24.00;99.80;;;;;;4997823;28;20796;-85
2021/06/23 09:47:40;;;;;;;0.60;0.60;;;24.20;95.60;;;;;;4995519;28;20505;-86
2021/06/23 09:50:08;;;;;;;0.50;0.40;;;24.20;94.80;;;;;;4997413;28;20436;-85
2021/06/23 09:52:35;;;;;;;1.57;0.80;;;24.20;95.10;;;;;;4999562;28;20851;-86
2021/06/23 09:55:03;;;;;;;1.37;0.80;;;24.20;95.20;;;;;;5016110;28;20550;-86
2021/06/23 09:57:29;;;;;;;1.17;1.00;;;24.20;97.30;;;;;;4996337;28;20428;-86
2021/06/23 10:00:10;;;;;;;2.50;1.00;;;24.10;97.10;;;;;;4998658;28;21684;-85
2021/06/23 10:02:35;;;;;;;0.50;0.50;;;24.30;98.60;;;;;;5015280;28;20212;-85
2021/06/23 10:05:21;;;;;;;1.27;0.50;;;24.40;97.10;;;;;;4995494;28;20484;-86
2021/06/23 10:07:51;;;;;;;0.60;0.60;;;24.60;95.20;;;;;;4989545;28;20224;-85
2021/06/23 10:10:22;;;;;;;0.63;0.60;;;24.90;96.90;;;;;;5014317;28;20464;-85
2021/06/23 10:12:53;;;;;;;1.43;0.77;;;25.00;95.10;;;;;;4999728;28;20464;-85
2021/06/23 10:15:21;;;;;;;1.20;1.00;;;24.90;94.30;;;;;;5014053;28;20439;-84
2021/06/23 10:21:21;;;;;;;;;;;;;;;;;;;;;
2021/06/23 10:23:47;;;;;;;1.33;0.73;;;25.20;94.00;;;;;;5000671;28;20456;-85
2021/06/23 10:26:18;;;;;;;1.00;0.70;;;25.30;94.50;;;;;;4998727;28;21220;-85
2021/06/23 10:28:52;;;;;;;1.70;0.60;;;25.20;92.40;;;;;;4997994;28;20479;-85
2021/06/23 10:31:25;;;;;;;0.60;0.50;;;25.40;93.10;;;;;;5017021;28;20424;-85
2021/06/23 10:33:51;;;;;;;0.70;0.70;;;25.70;91.60;;;;;;5000614;28;20467;-86
2021/06/23 10:36:19;;;;;;;0.60;0.60;;;25.70;94.10;;;;;;4998402;28;20970;-85
2021/06/23 10:38:47;;;;;;;0.47;0.40;;;25.60;93.00;;;;;;5016660;28;20463;-85
2021/06/23 10:41:15;;;;;;;1.00;0.50;;;25.80;92.90;;;;;;4978413;28;20479;-85
2021/06/23 10:43:43;;;;;;;1.37;0.70;;;26.00;93.70;;;;;;4993447;28;20453;-85
2021/06/23 10:46:09;;;;;;;0.50;0.50;;;26.00;91.60;;;;;;4980924;28;20503;-85
2021/06/23 10:49:01;;;;;;;2.10;0.60;;;25.90;93.20;;;;;;4981140;28;20483;-85
2021/06/23 10:51:28;;;;;;;0.60;0.60;;;25.90;90.80;;;;;;4972850;28;20441;-86
2021/06/23 10:53:54;;;;;;;1.17;0.70;;;26.00;92.20;;;;;;4975301;28;20480;-86
2021/06/23 10:56:44;;;;;;;0.60;0.60;;;26.00;92.60;;;;;;4992097;28;20430;-85
2021/06/23 10:59:35;;;;;;;0.70;0.50;;;26.00;94.00;;;;;;4996075;28;20347;-85
2021/06/23 11:02:12;;;;;;;1.03;0.93;;;26.20;93.10;;;;;;4980798;28;20966;-85
2021/06/23 11:05:00;;;;;;;1.10;0.70;;;26.50;91.50;;;;;;4980425;28;20954;-85
2021/06/23 11:07:53;;;;;;;0.80;0.60;;;26.80;92.20;;;;;;4967759;28;20425;-85
2021/06/23 11:10:25;;;;;;;0.70;0.70;;;26.80;91.60;;;;;;4978454;28;20459;-85
2021/06/23 11:12:57;;;;;;;0.80;0.80;;;26.80;92.80;;;;;;4979942;28;20453;-85
2021/06/23 11:15:25;;;;;;;1.23;0.60;;;26.80;93.20;;;;;;4994692;28;20809;-85
2021/06/23 11:17:53;;;;;;;1.27;0.80;;;26.70;94.30;;;;;;4979237;28;20429;-85
2021/06/23 11:20:19;;;;;;;0.83;0.80;;;26.80;94.20;;;;;;4978044;28;20457;-85
2021/06/23 11:22:53;;;;;;;1.27;0.60;;;27.20;93.20;;;;;;4980018;28;20439;-86
2021/06/23 11:25:25;;;;;;;0.80;0.70;;;27.10;89.70;;;;;;4974773;28;20181;-85
2021/06/23 11:28:29;;;;;;;0.90;0.90;;;26.80;94.00;;;;;;4979326;28;20467;-86
2021/06/23 11:31:10;;;;;;;0.93;0.93;;;26.70;93.90;;;;;;4995537;28;20540;-86
2021/06/23 11:33:43;;;;;;;0.80;0.80;;;26.90;92.30;;;;;;4994929;28;20444;-86
2021/06/23 11:36:12;;;;;;;0.70;0.70;;;27.00;90.90;;;;;;4979297;28;20961;-85
2021/06/23 11:38:40;;;;;;;2.20;0.90;;;26.70;92.60;;;;;;4977375;28;20448;-85
2021/06/23 11:41:08;;;;;;;0.87;0.87;;;26.80;93.40;;;;;;4980710;28;20787;-86
2021/06/23 11:43:34;;;;;;;2.00;1.80;;;27.00;93.20;;;;;;4980030;28;20429;-85
2021/06/23 11:46:00;;;;;;;0.67;0.67;;;27.20;93.40;;;;;;4976579;28;21024;-85
2021/06/23 11:48:29;;;;;;;1.00;0.90;;;27.20;92.90;;;;;;4980381;28;20484;-86
2021/06/23 11:50:55;;;;;;;1.30;1.20;;;27.50;93.10;;;;;;4977622;28;20807;-85
2021/06/23 11:53:22;;;;;;;1.77;0.90;;;27.60;93.10;;;;;;4979975;28;20436;-85
2021/06/23 11:55:49;;;;;;;0.83;0.73;;;27.90;92.30;;;;;;4978200;28;20615;-86
2021/06/23 11:58:15;;;;;;;1.03;0.93;;;27.90;92.00;;;;;;4981963;28;20444;-85
2021/06/23 12:00:42;;;;;;;0.70;0.70;;;27.90;92.10;;;;;;4984499;28;20441;-86
2021/06/23 12:03:10;;;;;;;1.57;0.83;;;27.50;90.80;;;;;;4997457;28;20221;-86
2021/06/23 12:05:37;;;;;;;0.87;0.83;;;27.60;91.70;;;;;;4982929;28;20446;-85
2021/06/23 12:08:03;;;;;;;1.43;0.83;;;27.50;91.30;;;;;;4982911;28;20818;-86
2021/06/23 12:10:30;;;;;;;2.00;1.00;;;27.80;91.70;;;;;;4979624;28;20463;-85
2021/06/23 12:12:57;;;;;;;0.80;0.80;;;28.30;92.60;;;;;;4982509;28;20420;-86
2021/06/23 12:15:33;;;;;;;24.33;1.67;;;28.40;91.90;;;;;;4998834;28;20950;-86
2021/06/23 12:18:14;;;;;;;0.63;0.60;;;28.40;91.10;;;;;;4976554;28;20961;-86
2021/06/23 12:20:43;;;;;;;1.13;0.90;;;28.70;91.90;;;;;;4997964;28;20502;-86
2021/06/23 12:23:11;;;;;;;1.70;1.07;;;28.70;90.40;;;;;;4982660;28;20425;-86
2021/06/23 12:25:48;;;;;;;0.80;0.80;;;28.90;83.00;;;;;;4976888;28;20516;-86
2021/06/23 12:28:15;;;;;;;2.20;1.00;;;28.80;86.10;;;;;;4979240;28;20563;-86
2021/06/23 12:30:45;;;;;;;0.80;0.73;;;28.90;90.70;;;;;;4997520;28;20575;-86
2021/06/23 12:33:12;;;;;;;0.70;0.70;;;29.40;84.20;;;;;;4977638;28;20448;-86
2021/06/23 12:38:46;;;;;;;1.00;1.00;;;29.20;89.30;;;;;;4961847;28;20484;-86
2021/06/23 12:41:21;;;;;;;0.87;0.87;;;28.60;90.10;;;;;;4982588;28;20484;-86
2021/06/23 12:43:47;;;;;;;0.90;0.77;;;28.30;90.60;;;;;;4997141;28;20687;-86
2021/06/23 12:46:15;;;;;;;1.27;1.17;;;28.10;90.40;;;;;;4982462;28;20449;-86
2021/06/23 12:48:57;;;;;;;1.00;0.90;;;28.10;91.40;;;;;;4972048;28;20615;-86
2021/06/23 12:51:25;;;;;;;1.17;0.80;;;28.20;90.60;;;;;;4980995;28;20428;-86
2021/06/23 12:54:31;;;;;;;1.87;0.90;;;28.80;90.60;;;;;;4980575;28;20491;-86
2021/06/23 12:57:04;;;;;;;1.30;1.20;;;28.60;87.60;;;;;;4978674;28;20448;-86
2021/06/23 12:59:30;;;;;;;1.47;0.90;;;28.90;84.80;;;;;;4980770;28;20468;-86
2021/06/23 13:02:00;;;;;;;0.83;0.83;;;28.60;86.90;;;;;;4980436;28;20788;-86
2021/06/23 13:04:29;;;;;;;0.80;0.80;;;29.40;79.70;;;;;;4979572;28;20449;-86
2021/06/23 13:06:54;;;;;;;0.70;0.70;;;29.70;86.30;;;;;;4980787;28;20487;-86
2021/06/23 13:09:21;;;;;;;1.23;0.90;;;28.80;86.80;;;;;;4980301;28;20506;-86
2021/06/23 13:11:47;;;;;;;0.80;0.80;;;28.00;88.10;;;;;;4978521;28;20239;-86
2021/06/23 13:14:13;;;;;;;1.20;1.00;;;27.50;90.30;;;;;;4980042;28;23400;-86
2021/06/23 13:16:39;;;;;;;0.83;0.83;;;27.10;91.50;;;;;;4981202;28;20815;-86
2021/06/23 13:19:04;;;;;;;0.83;0.67;;;27.20;92.30;;;;;;4980349;28;20300;-86
2021/06/23 13:21:36;;;;;;;1.27;0.90;;;28.00;90.80;;;;;;4977436;28;20182;-86
2021/06/23 13:24:01;;;;;;;2.97;0.70;;;29.20;90.50;;;;;;4979591;28;20827;-86